Time;durP1;ratioP1;P1;durP2;ratioP2;P2;SDS_P1;SDS_P2;PMS_P1;PMS_P2;Temp;Humidity;BMP_temperature;BMP_pressure;BME280_temperature;BME280_humidity;BME280_pressure;Samples;Min_cycle;Max_cycle;Signal;HPM_P1;HPM_P2
2023/09/01 00:01:07;;;;;;;0.47;0.47;;;12.30;99.90;;;;;;5095667;28;20075;-81
2023/09/01 00:03:32;;;;;;;0.38;0.38;;;12.80;99.90;;;;;;5095573;28;20043;-81
2023/09/01 00:05:58;;;;;;;0.40;0.40;;;12.30;99.90;;;;;;5095823;28;20039;-81
2023/09/01 00:08:25;;;;;;;0.40;0.40;;;12.30;99.90;;;;;;5095908;28;20483;-81
2023/09/01 00:10:56;;;;;;;0.50;0.50;;;12.30;99.90;;;;;;5097266;28;20456;-81
2023/09/01 00:13:26;;;;;;;0.30;0.30;;;12.30;99.90;;;;;;5095903;28;20035;-80
2023/09/01 00:15:52;;;;;;;0.60;0.60;;;12.30;99.90;;;;;;5095709;28;20063;-80
2023/09/01 00:18:17;;;;;;;0.40;0.40;;;12.20;99.90;;;;;;5095734;28;20476;-80
2023/09/01 00:20:43;;;;;;;0.50;0.50;;;12.30;99.90;;;;;;5095700;28;20499;-81
2023/09/01 00:23:08;;;;;;;0.50;0.40;;;12.20;99.90;;;;;;5096022;28;20043;-81
2023/09/01 00:25:34;;;;;;;0.43;0.43;;;12.20;99.90;;;;;;5096066;28;20043;-81
2023/09/01 00:28:00;;;;;;;0.50;0.47;;;12.90;99.90;;;;;;5096464;28;20120;-80
2023/09/01 00:30:29;;;;;;;0.50;0.50;;;12.10;99.90;;;;;;5095966;28;20371;-80
2023/09/01 00:32:55;;;;;;;0.65;0.50;;;12.10;99.90;;;;;;5095855;28;20036;-81
2023/09/01 00:35:20;;;;;;;0.33;0.33;;;12.10;99.90;;;;;;5095201;28;20371;-81
2023/09/01 00:37:46;;;;;;;0.30;0.30;;;12.10;99.90;;;;;;5095258;28;20035;-81
2023/09/01 00:40:12;;;;;;;2.03;0.60;;;12.10;99.90;;;;;;5095162;28;20039;-81
2023/09/01 00:42:37;;;;;;;0.50;0.50;;;12.10;99.90;;;;;;5095110;28;20398;-81
2023/09/01 00:45:03;;;;;;;0.45;0.40;;;12.10;99.90;;;;;;5093889;28;20348;-81
2023/09/01 00:47:29;;;;;;;0.40;0.40;;;12.10;99.90;;;;;;5095100;28;20555;-81
2023/09/01 00:49:54;;;;;;;0.52;0.50;;;12.10;99.90;;;;;;5095049;28;20065;-80
2023/09/01 00:52:20;;;;;;;0.30;0.30;;;12.10;99.90;;;;;;5094546;28;20036;-81
2023/09/01 00:54:46;;;;;;;0.80;0.50;;;12.10;99.90;;;;;;5094912;28;20122;-80
2023/09/01 00:57:11;;;;;;;0.52;0.52;;;12.10;99.90;;;;;;5095369;28;20471;-81
2023/09/01 00:59:37;;;;;;;0.30;0.30;;;12.10;99.90;;;;;;5094914;28;20062;-81
2023/09/01 01:02:04;;;;;;;0.40;0.40;;;12.00;99.90;;;;;;5094843;28;20040;-81
2023/09/01 01:04:31;;;;;;;0.40;0.40;;;12.80;99.90;;;;;;5094475;28;20031;-80
2023/09/01 01:07:18;;;;;;;0.40;0.40;;;12.10;99.90;;;;;;5093867;28;20040;-80
2023/09/01 01:10:06;;;;;;;0.50;0.50;;;12.00;99.90;;;;;;5094659;28;20048;-80
2023/09/01 01:12:53;;;;;;;0.55;0.55;;;12.00;99.90;;;;;;5094736;28;20464;-81
2023/09/01 01:15:22;;;;;;;0.60;0.60;;;12.10;99.90;;;;;;5094485;28;20077;-80
2023/09/01 01:17:49;;;;;;;0.40;0.40;;;12.00;99.90;;;;;;5094498;28;20090;-80
2023/09/01 01:20:53;;;;;;;0.40;0.40;;;12.00;99.90;;;;;;5094774;28;20036;-80
2023/09/01 01:23:21;;;;;;;1.50;0.50;;;12.00;99.90;;;;;;5085353;28;20501;-81
2023/09/01 01:25:51;;;;;;;0.95;0.57;;;12.10;99.90;;;;;;5094013;28;20122;-81
2023/09/01 01:28:17;;;;;;;0.50;0.50;;;12.00;99.90;;;;;;5094223;28;20078;-81
2023/09/01 01:30:46;;;;;;;2.28;0.50;;;12.00;99.90;;;;;;5094246;28;20166;-81
2023/09/01 01:33:45;;;;;;;0.40;0.40;;;12.00;99.90;;;;;;5094057;28;20097;-81
2023/09/01 01:36:13;;;;;;;;;;;12.00;99.90;;;;;;5086203;28;20048;-81
2023/09/01 01:38:42;;;;;;;0.40;0.40;;;12.00;99.90;;;;;;5094470;28;19963;-81
2023/09/01 01:41:11;;;;;;;0.40;0.40;;;12.00;99.90;;;;;;5094322;28;20040;-81
2023/09/01 01:43:39;;;;;;;0.40;0.40;;;12.00;99.90;;;;;;5094043;28;20410;-81
2023/09/01 01:46:06;;;;;;;0.55;0.55;;;12.00;99.90;;;;;;5093990;28;20527;-81
2023/09/01 01:48:35;;;;;;;;;;;12.00;99.90;;;;;;5093494;28;20044;-81
2023/09/01 01:51:01;;;;;;;0.40;0.40;;;12.00;99.90;;;;;;5093935;28;19927;-81
2023/09/01 01:53:26;;;;;;;0.43;0.43;;;12.00;99.90;;;;;;5094010;28;20039;-81
2023/09/01 01:55:52;;;;;;;0.40;0.40;;;12.00;99.90;;;;;;5093976;28;20128;-81
2023/09/01 01:58:17;;;;;;;0.40;0.40;;;12.10;99.90;;;;;;5093920;28;20113;-81
2023/09/01 02:00:43;;;;;;;0.80;0.70;;;11.90;99.90;;;;;;5093632;28;20119;-81
2023/09/01 02:03:09;;;;;;;0.40;0.40;;;11.90;99.90;;;;;;5093836;28;20044;-81
2023/09/01 02:05:34;;;;;;;0.47;0.47;;;11.90;99.90;;;;;;5094059;28;20109;-81
2023/09/01 02:08:00;;;;;;;0.40;0.40;;;11.90;99.90;;;;;;5094690;28;20055;-81
2023/09/01 02:10:25;;;;;;;0.40;0.40;;;12.40;99.90;;;;;;5093909;28;20123;-80
2023/09/01 02:12:51;;;;;;;1.03;0.57;;;12.00;99.90;;;;;;5093704;28;20364;-80
2023/09/01 02:15:17;;;;;;;0.40;0.40;;;12.00;99.90;;;;;;5093715;28;20070;-80
2023/09/01 02:17:43;;;;;;;0.40;0.40;;;12.00;99.90;;;;;;5092642;28;20044;-80
2023/09/01 02:20:18;;;;;;;0.40;0.40;;;12.10;99.90;;;;;;5095210;28;20044;-81
2023/09/01 02:22:45;;;;;;;0.40;0.40;;;12.10;99.90;;;;;;5097989;28;20119;-81
2023/09/01 02:25:12;;;;;;;0.40;0.40;;;12.10;99.90;;;;;;5097903;28;20036;-80
2023/09/01 02:27:40;;;;;;;0.40;0.40;;;12.10;99.90;;;;;;5097922;28;20052;-80
2023/09/01 02:30:10;;;;;;;0.47;0.47;;;12.10;99.90;;;;;;5097648;28;20481;-80
2023/09/01 02:32:37;;;;;;;0.50;0.50;;;12.10;99.90;;;;;;5097539;28;20464;-81
2023/09/01 02:35:06;;;;;;;0.40;0.40;;;12.10;99.90;;;;;;5097767;28;20495;-80
2023/09/01 02:37:38;;;;;;;0.50;0.50;;;12.10;99.90;;;;;;5096435;28;20040;-80
2023/09/01 02:40:10;;;;;;;0.40;0.40;;;12.10;99.90;;;;;;5098626;28;20122;-81
2023/09/01 02:42:40;;;;;;;0.40;0.40;;;12.10;99.90;;;;;;5097318;28;20047;-80
2023/09/01 02:45:07;;;;;;;0.57;0.57;;;12.10;99.90;;;;;;5097432;28;20477;-81
2023/09/01 02:47:33;;;;;;;;;;;12.10;99.90;;;;;;5098242;28;20039;-81
2023/09/01 02:49:58;;;;;;;0.50;0.50;;;12.10;99.90;;;;;;5097689;28;20373;-81
2023/09/01 02:52:24;;;;;;;0.40;0.40;;;12.10;99.90;;;;;;5096641;28;20036;-80
2023/09/01 02:54:49;;;;;;;0.40;0.40;;;12.80;99.90;;;;;;5097174;28;20032;-80
2023/09/01 02:57:15;;;;;;;0.40;0.40;;;12.40;99.90;;;;;;5097211;28;20130;-81
2023/09/01 02:59:40;;;;;;;1.60;0.87;;;12.10;99.90;;;;;;5097060;28;20143;-80
2023/09/01 03:02:06;;;;;;;0.40;0.40;;;12.10;99.90;;;;;;5097530;28;20040;-80
2023/09/01 03:04:32;;;;;;;0.60;0.60;;;12.10;99.90;;;;;;5096786;28;20116;-80
2023/09/01 03:06:57;;;;;;;0.40;0.40;;;12.50;99.90;;;;;;5096633;28;20040;-81
2023/09/01 03:09:23;;;;;;;0.47;0.45;;;12.00;99.90;;;;;;5096799;28;20040;-80
2023/09/01 03:11:49;;;;;;;0.33;0.33;;;12.00;99.90;;;;;;5096913;28;20036;-80
2023/09/01 03:14:15;;;;;;;0.52;0.52;;;12.00;99.90;;;;;;5097004;28;20119;-80
2023/09/01 03:16:43;;;;;;;0.40;0.40;;;12.10;99.90;;;;;;5096701;28;20048;-80
2023/09/01 03:19:09;;;;;;;1.63;0.88;;;12.00;99.90;;;;;;5096795;28;20495;-81
2023/09/01 03:21:35;;;;;;;0.50;0.50;;;12.00;99.90;;;;;;5096510;28;20036;-80
2023/09/01 03:24:01;;;;;;;0.40;0.40;;;12.00;99.90;;;;;;5097123;28;20036;-81
2023/09/01 03:26:29;;;;;;;0.40;0.40;;;12.00;99.90;;;;;;5096596;28;20464;-80
2023/09/01 03:28:55;;;;;;;0.40;0.40;;;12.00;99.90;;;;;;5096764;28;20040;-80
2023/09/01 03:31:21;;;;;;;0.30;0.30;;;12.00;99.90;;;;;;5096026;28;20059;-80
2023/09/01 03:33:47;;;;;;;0.40;0.40;;;12.00;99.90;;;;;;5096400;28;20040;-80
2023/09/01 03:36:13;;;;;;;0.30;0.30;;;12.00;99.90;;;;;;5096580;28;20070;-80
2023/09/01 03:38:39;;;;;;;0.67;0.67;;;12.10;99.90;;;;;;5096317;28;20071;-80
2023/09/01 03:41:05;;;;;;;0.40;0.40;;;11.90;99.90;;;;;;5096438;28;20043;-81
2023/09/01 03:43:32;;;;;;;0.40;0.40;;;11.90;99.90;;;;;;5095954;28;20051;-81
2023/09/01 03:45:57;;;;;;;0.45;0.45;;;11.90;99.90;;;;;;5096111;28;20043;-80
2023/09/01 03:48:26;;;;;;;0.65;0.65;;;11.80;99.90;;;;;;5096209;28;20036;-80
2023/09/01 03:51:14;;;;;;;0.63;0.50;;;11.90;99.90;;;;;;5096422;28;20377;-81
2023/09/01 03:53:40;;;;;;;0.50;0.50;;;11.90;99.90;;;;;;5095052;28;20376;-80
2023/09/01 03:56:11;;;;;;;0.50;0.50;;;12.30;99.90;;;;;;5096998;28;20127;-80
2023/09/01 03:58:38;;;;;;;0.35;0.35;;;11.80;99.90;;;;;;5097352;28;20047;-80
2023/09/01 04:01:08;;;;;;;0.50;0.50;;;11.80;99.90;;;;;;5095966;28;20032;-81
2023/09/01 04:03:34;;;;;;;0.50;0.50;;;11.70;99.90;;;;;;5096143;28;20383;-80
2023/09/01 04:06:00;;;;;;;0.40;0.40;;;11.70;99.90;;;;;;5095971;28;20533;-80
2023/09/01 04:08:26;;;;;;;0.40;0.40;;;11.60;99.90;;;;;;5095946;28;20055;-80
2023/09/01 04:10:52;;;;;;;0.45;0.45;;;11.60;99.90;;;;;;5095603;28;20070;-80
2023/09/01 04:13:17;;;;;;;0.93;0.60;;;11.60;99.90;;;;;;5096109;28;20329;-80
2023/09/01 04:15:43;;;;;;;0.50;0.50;;;12.10;99.90;;;;;;5095625;28;20044;-80
2023/09/01 04:18:08;;;;;;;0.40;0.40;;;11.90;99.90;;;;;;5095651;28;20051;-80
2023/09/01 04:20:34;;;;;;;0.52;0.52;;;11.60;99.90;;;;;;5095268;28;20044;-80
2023/09/01 04:23:00;;;;;;;0.40;0.40;;;11.60;99.90;;;;;;5095431;28;20043;-80
2023/09/01 04:25:25;;;;;;;0.40;0.40;;;11.60;99.90;;;;;;5095330;28;20048;-80
2023/09/01 04:27:51;;;;;;;0.40;0.40;;;11.90;99.90;;;;;;5096275;28;20032;-80
2023/09/01 04:30:16;;;;;;;0.40;0.40;;;11.50;99.90;;;;;;5096071;28;20039;-80
2023/09/01 04:32:44;;;;;;;0.40;0.40;;;11.80;99.90;;;;;;5095318;28;20521;-81
2023/09/01 04:35:10;;;;;;;0.40;0.40;;;11.50;99.90;;;;;;5095338;28;20102;-81
2023/09/01 04:37:36;;;;;;;0.52;0.52;;;11.50;99.90;;;;;;5095342;28;20062;-80
2023/09/01 04:40:07;;;;;;;0.40;0.40;;;11.50;99.90;;;;;;5094932;28;20036;-81
2023/09/01 04:42:33;;;;;;;0.50;0.50;;;11.40;99.90;;;;;;5093996;28;20539;-80
2023/09/01 04:44:59;;;;;;;0.50;0.50;;;11.40;99.90;;;;;;5095748;28;20040;-81
2023/09/01 04:47:24;;;;;;;1.67;1.15;;;11.40;99.90;;;;;;5095541;28;20269;-80
2023/09/01 04:49:51;;;;;;;0.50;0.50;;;11.40;99.90;;;;;;5094961;28;20447;-80
2023/09/01 04:52:16;;;;;;;0.40;0.40;;;11.80;99.90;;;;;;5095062;28;20032;-80
2023/09/01 04:54:42;;;;;;;0.45;0.45;;;11.30;99.90;;;;;;5093622;28;20047;-82
2023/09/01 04:57:07;;;;;;;0.50;0.50;;;11.30;99.90;;;;;;5094874;28;20044;-79
2023/09/01 04:59:33;;;;;;;0.40;0.40;;;11.30;99.90;;;;;;5094882;28;20051;-81
2023/09/01 05:01:59;;;;;;;0.40;0.40;;;11.20;99.90;;;;;;5093649;28;20028;-80
2023/09/01 05:04:26;;;;;;;0.40;0.40;;;11.20;99.90;;;;;;5094752;28;20044;-80
2023/09/01 05:06:52;;;;;;;0.30;0.30;;;11.20;99.90;;;;;;5094459;28;20547;-80
2023/09/01 05:09:18;;;;;;;0.40;0.40;;;11.20;99.90;;;;;;5094591;28;20055;-80
2023/09/01 05:11:44;;;;;;;0.50;0.50;;;11.20;99.90;;;;;;5094154;28;20468;-80
2023/09/01 05:14:10;;;;;;;0.77;0.70;;;11.20;99.90;;;;;;5094489;28;20042;-80
2023/09/01 05:16:36;;;;;;;0.40;0.40;;;11.20;99.90;;;;;;5094487;28;20089;-80
2023/09/01 05:19:02;;;;;;;0.50;0.50;;;11.20;99.90;;;;;;5094544;28;20460;-80
2023/09/01 05:21:28;;;;;;;0.77;0.77;;;11.30;99.90;;;;;;5094368;28;20046;-80
2023/09/01 05:23:53;;;;;;;0.40;0.40;;;11.30;99.90;;;;;;5094272;28;20032;-80
2023/09/01 05:26:19;;;;;;;0.43;0.43;;;11.40;99.90;;;;;;5094598;28;20438;-80
2023/09/01 05:28:45;;;;;;;0.50;0.50;;;11.40;99.90;;;;;;5094259;28;20044;-80
2023/09/01 05:31:11;;;;;;;0.40;0.40;;;11.40;99.90;;;;;;5094298;28;20039;-80
2023/09/01 05:33:36;;;;;;;0.50;0.50;;;11.40;99.90;;;;;;5094080;28;20487;-80
2023/09/01 05:36:02;;;;;;;0.40;0.40;;;11.50;99.90;;;;;;5094516;28;20448;-80
2023/09/01 05:38:28;;;;;;;0.60;0.60;;;11.50;99.90;;;;;;5094123;28;20028;-80
2023/09/01 05:41:02;;;;;;;0.50;0.50;;;11.60;99.90;;;;;;5093729;28;20573;-80
2023/09/01 05:43:29;;;;;;;0.40;0.40;;;11.60;99.90;;;;;;5094043;28;20044;-80
2023/09/01 05:45:54;;;;;;;0.40;0.40;;;11.70;99.90;;;;;;5094050;28;20119;-81
2023/09/01 05:48:20;;;;;;;0.63;0.63;;;11.70;99.90;;;;;;5094015;28;20046;-80
2023/09/01 05:50:46;;;;;;;0.60;0.60;;;11.80;99.90;;;;;;5093939;28;20076;-80
2023/09/01 05:53:11;;;;;;;0.50;0.50;;;11.80;99.90;;;;;;5093521;28;20042;-80
2023/09/01 05:55:37;;;;;;;1.73;1.35;;;11.90;99.90;;;;;;5094071;28;20051;-80
2023/09/01 05:58:03;;;;;;;0.40;0.40;;;11.90;99.90;;;;;;5093921;28;20418;-80
2023/09/01 06:00:31;;;;;;;0.55;0.55;;;12.00;99.90;;;;;;5093915;28;20040;-80
2023/09/01 06:02:57;;;;;;;0.88;0.60;;;12.00;99.90;;;;;;5094203;28;20085;-80
2023/09/01 06:05:23;;;;;;;0.40;0.40;;;12.10;99.90;;;;;;5093779;28;20052;-80
2023/09/01 06:07:49;;;;;;;0.82;0.80;;;12.20;99.90;;;;;;5093820;28;20040;-80
2023/09/01 06:10:17;;;;;;;0.40;0.40;;;12.20;99.90;;;;;;5094451;28;20123;-80
2023/09/01 06:12:43;;;;;;;0.40;0.40;;;12.20;99.90;;;;;;5093551;28;20040;-80
2023/09/01 06:15:09;;;;;;;0.73;0.73;;;12.30;99.90;;;;;;5093551;28;20106;-80
2023/09/01 06:17:37;;;;;;;0.50;0.50;;;12.40;99.90;;;;;;5093589;28;20077;-81
2023/09/01 06:20:04;;;;;;;1.30;0.98;;;12.40;99.90;;;;;;5093665;28;20190;-80
2023/09/01 06:22:30;;;;;;;0.60;0.60;;;12.50;99.90;;;;;;5093538;28;20049;-81
2023/09/01 06:24:55;;;;;;;0.73;0.73;;;12.50;99.90;;;;;;5093623;28;20131;-80
2023/09/01 06:27:21;;;;;;;1.00;0.82;;;12.60;99.90;;;;;;5093740;28;20040;-80
2023/09/01 06:29:47;;;;;;;1.08;0.88;;;12.70;99.90;;;;;;5093894;28;20036;-80
2023/09/01 06:32:13;;;;;;;1.65;1.08;;;12.70;99.90;;;;;;5093501;28;20036;-80
2023/09/01 06:34:39;;;;;;;0.95;0.70;;;12.90;99.90;;;;;;5092473;28;20047;-80
2023/09/01 06:37:05;;;;;;;1.73;0.68;;;12.90;99.90;;;;;;5093416;28;20040;-80
2023/09/01 06:39:30;;;;;;;2.20;1.05;;;13.10;99.90;;;;;;5093484;28;20043;-80
2023/09/01 06:41:57;;;;;;;1.30;0.90;;;13.20;99.90;;;;;;5093463;28;20097;-80
2023/09/01 06:44:22;;;;;;;0.80;0.75;;;13.30;99.90;;;;;;5092147;28;20086;-80
2023/09/01 06:46:49;;;;;;;1.00;0.70;;;13.40;99.90;;;;;;5093641;28;20422;-80
2023/09/01 06:49:17;;;;;;;0.50;0.50;;;13.40;99.90;;;;;;5093375;28;20081;-80
2023/09/01 06:51:43;;;;;;;0.43;0.43;;;13.50;99.90;;;;;;5093332;28;20526;-80
2023/09/01 06:54:08;;;;;;;0.43;0.43;;;13.50;99.90;;;;;;5093342;28;20036;-80
2023/09/01 06:56:34;;;;;;;0.90;0.73;;;13.60;99.90;;;;;;5093712;28;20044;-81
2023/09/01 06:59:00;;;;;;;0.80;0.60;;;13.70;99.90;;;;;;5093604;28;20046;-80
2023/09/01 07:01:28;;;;;;;0.80;0.80;;;13.80;99.90;;;;;;5093360;28;20036;-80
2023/09/01 07:03:54;;;;;;;1.13;0.98;;;13.80;99.90;;;;;;5093243;28;20040;-80
2023/09/01 07:06:20;;;;;;;0.40;0.40;;;14.00;99.90;;;;;;5095092;28;20430;-80
2023/09/01 07:08:46;;;;;;;1.13;1.05;;;14.00;99.90;;;;;;5097528;28;20281;-81
2023/09/01 07:11:14;;;;;;;0.67;0.57;;;14.00;99.90;;;;;;5096865;28;20498;-80
2023/09/01 07:13:41;;;;;;;8.10;0.90;;;14.10;99.90;;;;;;5097097;28;20118;-80
2023/09/01 07:16:06;;;;;;;0.75;0.73;;;14.10;99.90;;;;;;5096766;28;20051;-80
2023/09/01 07:18:33;;;;;;;0.88;0.88;;;14.10;99.90;;;;;;5096922;28;20036;-80
2023/09/01 07:21:00;;;;;;;0.68;0.68;;;14.20;99.90;;;;;;5096680;28;20048;-80
2023/09/01 07:23:29;;;;;;;0.63;0.63;;;14.20;99.90;;;;;;5096941;28;20048;-80
2023/09/01 07:25:55;;;;;;;0.57;0.57;;;14.30;99.90;;;;;;5096705;28;20040;-81
2023/09/01 07:28:22;;;;;;;0.50;0.50;;;14.40;99.90;;;;;;5096787;28;20044;-79
2023/09/01 07:30:48;;;;;;;0.50;0.50;;;14.60;99.90;;;;;;5096679;28;20036;-81
2023/09/01 07:33:14;;;;;;;0.70;0.70;;;14.70;99.90;;;;;;5096396;28;20072;-80
2023/09/01 07:35:46;;;;;;;0.80;0.80;;;14.90;99.90;;;;;;5096325;28;20093;-80
2023/09/01 07:38:12;;;;;;;1.40;0.85;;;14.90;99.90;;;;;;5096937;28;20128;-80
2023/09/01 07:40:37;;;;;;;1.13;0.80;;;14.90;99.90;;;;;;5096473;28;20462;-80
2023/09/01 07:43:03;;;;;;;0.80;0.80;;;15.00;99.90;;;;;;5096388;28;20067;-80
2023/09/01 07:45:29;;;;;;;0.80;0.80;;;15.30;99.90;;;;;;5096164;28;20090;-80
2023/09/01 07:47:54;;;;;;;0.73;0.50;;;15.50;99.90;;;;;;5096231;28;20036;-80
2023/09/01 07:50:23;;;;;;;7.33;0.90;;;15.10;99.90;;;;;;5095888;28;20043;-80
2023/09/01 07:52:50;;;;;;;0.80;0.80;;;15.40;99.90;;;;;;5096428;28;20044;-80
2023/09/01 07:55:16;;;;;;;1.85;1.20;;;15.40;99.90;;;;;;5096354;28;20380;-81
2023/09/01 07:57:41;;;;;;;0.87;0.80;;;15.50;99.90;;;;;;5095942;28;20051;-81
2023/09/01 08:00:08;;;;;;;2.38;0.60;;;15.60;99.90;;;;;;5096070;28;20047;-80
2023/09/01 08:02:34;;;;;;;1.40;1.02;;;15.70;99.90;;;;;;5095890;28;20498;-81
2023/09/01 08:05:03;;;;;;;1.15;1.05;;;15.80;99.90;;;;;;5095866;28;20417;-80
2023/09/01 08:07:32;;;;;;;0.70;0.70;;;15.80;99.90;;;;;;5095691;28;20056;-80
2023/09/01 08:09:58;;;;;;;0.70;0.70;;;15.90;99.90;;;;;;5095833;28;20032;-80
2023/09/01 08:12:25;;;;;;;1.33;0.73;;;15.90;99.90;;;;;;5095649;28;20413;-79
2023/09/01 08:14:50;;;;;;;;;;;16.00;99.90;;;;;;5096336;28;20433;-80
2023/09/01 08:17:16;;;;;;;0.65;0.65;;;16.00;99.90;;;;;;5095616;28;19923;-80
2023/09/01 08:19:45;;;;;;;1.80;1.70;;;16.30;99.90;;;;;;5095499;28;20101;-80
2023/09/01 08:22:11;;;;;;;0.88;0.77;;;16.20;99.90;;;;;;5095475;28;20081;-81
2023/09/01 08:24:36;;;;;;;1.40;0.83;;;16.30;99.90;;;;;;5095414;28;20040;-81
2023/09/01 08:27:03;;;;;;;0.53;0.50;;;16.50;99.90;;;;;;5095523;28;20403;-80
2023/09/01 08:29:30;;;;;;;1.20;0.80;;;16.50;99.90;;;;;;5095843;28;20047;-81
2023/09/01 08:31:56;;;;;;;0.70;0.70;;;16.60;99.90;;;;;;5095453;28;20442;-81
2023/09/01 08:34:22;;;;;;;0.50;0.50;;;16.80;99.90;;;;;;5095335;28;20089;-81
2023/09/01 08:36:48;;;;;;;2.67;1.07;;;16.80;99.90;;;;;;5095324;28;20468;-81
2023/09/01 08:39:14;;;;;;;0.82;0.80;;;16.80;99.90;;;;;;5095583;28;20399;-81
2023/09/01 08:41:41;;;;;;;1.35;1.25;;;16.80;99.90;;;;;;5095226;28;20047;-80
2023/09/01 08:44:09;;;;;;;0.88;0.73;;;16.90;99.90;;;;;;5095154;28;20040;-81
2023/09/01 08:46:35;;;;;;;0.75;0.75;;;16.90;99.90;;;;;;5095102;28;20067;-81
2023/09/01 08:49:02;;;;;;;0.70;0.50;;;17.00;99.90;;;;;;5094988;28;20051;-80
2023/09/01 08:51:29;;;;;;;2.42;1.05;;;17.10;99.90;;;;;;5095048;28;20119;-81
2023/09/01 08:53:55;;;;;;;0.65;0.60;;;17.20;99.90;;;;;;5094856;28;20039;-81
2023/09/01 08:56:20;;;;;;;1.13;0.60;;;17.30;99.90;;;;;;5095188;28;20039;-81
2023/09/01 08:58:46;;;;;;;0.70;0.60;;;17.30;99.90;;;;;;5094921;28;20476;-80
2023/09/01 09:01:16;;;;;;;1.07;0.97;;;17.40;99.90;;;;;;5095152;28;20036;-80
2023/09/01 09:03:42;;;;;;;0.55;0.55;;;17.40;99.90;;;;;;5094652;28;20036;-81
2023/09/01 09:06:12;;;;;;;0.43;0.43;;;17.40;99.90;;;;;;5094643;28;20085;-81
2023/09/01 09:08:38;;;;;;;0.80;0.75;;;17.40;99.90;;;;;;5094632;28;20056;-80
2023/09/01 09:11:12;;;;;;;0.63;0.63;;;17.50;99.90;;;;;;5094597;28;20082;-80
2023/09/01 09:13:38;;;;;;;0.82;0.80;;;17.50;99.90;;;;;;5094635;28;20304;-80
2023/09/01 09:16:17;;;;;;;0.80;0.60;;;17.60;99.90;;;;;;5094519;28;20433;-81
2023/09/01 09:18:46;;;;;;;2.10;0.70;;;17.70;99.90;;;;;;5094542;28;20040;-80
2023/09/01 09:21:23;;;;;;;1.10;0.70;;;17.80;99.90;;;;;;5094589;28;20089;-80
2023/09/01 09:23:49;;;;;;;1.30;1.00;;;17.80;99.90;;;;;;5094457;28;20111;-81
2023/09/01 09:26:14;;;;;;;0.67;0.67;;;17.90;99.90;;;;;;5094380;28;20552;-81
2023/09/01 09:28:40;;;;;;;0.57;0.57;;;18.00;99.90;;;;;;5093548;28;20040;-80
2023/09/01 09:31:06;;;;;;;0.50;0.50;;;18.00;99.90;;;;;;5094349;28;20040;-81
2023/09/01 09:33:33;;;;;;;0.43;0.43;;;18.10;99.90;;;;;;5094199;28;20353;-80
2023/09/01 09:36:00;;;;;;;0.45;0.45;;;18.10;99.90;;;;;;5094244;28;20050;-80
2023/09/01 09:38:49;;;;;;;1.42;0.75;;;18.10;99.90;;;;;;5094231;28;20044;-80
2023/09/01 09:41:15;;;;;;;0.75;0.75;;;18.10;99.90;;;;;;5093816;28;20568;-80
2023/09/01 09:43:48;;;;;;;1.67;1.33;;;18.20;99.90;;;;;;5093990;28;20036;-80
2023/09/01 09:46:15;;;;;;;0.40;0.40;;;18.10;99.90;;;;;;5094322;28;20467;-80
2023/09/01 09:48:41;;;;;;;;;;;18.20;99.90;;;;;;5094490;28;20051;-79
2023/09/01 09:51:08;;;;;;;2.70;1.00;;;18.30;99.90;;;;;;5094036;28;20281;-80
2023/09/01 09:53:38;;;;;;;0.70;0.63;;;18.30;99.90;;;;;;5093781;28;20036;-80
2023/09/01 09:56:32;;;;;;;0.68;0.68;;;18.30;99.90;;;;;;5094000;28;20036;-79
2023/09/01 09:59:03;;;;;;;0.68;0.68;;;18.30;99.90;;;;;;5092394;28;20105;-79
2023/09/01 10:01:34;;;;;;;0.50;0.50;;;18.40;99.90;;;;;;5093926;28;20082;-79
2023/09/01 10:04:04;;;;;;;0.85;0.77;;;18.50;99.90;;;;;;5093807;28;20513;-79
2023/09/01 10:06:34;;;;;;;0.45;0.45;;;18.50;99.90;;;;;;5093828;28;20036;-79
2023/09/01 10:09:04;;;;;;;1.20;0.50;;;18.60;99.90;;;;;;5094282;28;20060;-80
2023/09/01 10:11:30;;;;;;;0.50;0.50;;;18.60;99.90;;;;;;5092702;28;20463;-79
2023/09/01 10:13:56;;;;;;;0.77;0.75;;;18.60;99.90;;;;;;5093808;28;20044;-79
2023/09/01 10:16:23;;;;;;;1.33;0.60;;;18.70;99.90;;;;;;5093680;28;20039;-80
2023/09/01 10:18:49;;;;;;;0.30;0.30;;;18.70;99.90;;;;;;5093554;28;20081;-80
2023/09/01 10:21:16;;;;;;;0.57;0.52;;;18.60;99.90;;;;;;5093653;28;20036;-80
2023/09/01 10:23:43;;;;;;;1.45;1.05;;;18.70;99.90;;;;;;5094026;28;20054;-80
2023/09/01 10:26:24;;;;;;;;;;;18.60;99.90;;;;;;5094063;28;20124;-80
2023/09/01 10:29:04;;;;;;;0.40;0.40;;;18.60;99.90;;;;;;5093637;28;20361;-80
2023/09/01 10:31:31;;;;;;;0.40;0.40;;;18.60;99.90;;;;;;5093762;28;20492;-80
2023/09/01 10:34:10;;;;;;;0.82;0.65;;;18.50;99.90;;;;;;5093538;28;20043;-80
2023/09/01 10:36:37;;;;;;;0.30;0.30;;;18.60;99.90;;;;;;5093566;28;20059;-80
2023/09/01 10:39:29;;;;;;;0.40;0.40;;;18.60;99.90;;;;;;5093605;28;20047;-79
2023/09/01 10:42:03;;;;;;;0.85;0.75;;;18.70;99.90;;;;;;5096954;28;20470;-80
2023/09/01 10:44:48;;;;;;;0.45;0.45;;;18.70;99.90;;;;;;5097888;28;20040;-80
2023/09/01 10:47:32;;;;;;;0.30;0.30;;;18.70;99.90;;;;;;5089785;28;20052;-79
2023/09/01 10:49:58;;;;;;;0.63;0.60;;;18.70;99.90;;;;;;5097317;28;20040;-80
2023/09/01 10:52:24;;;;;;;0.30;0.30;;;18.80;99.90;;;;;;5097263;28;20039;-79
2023/09/01 10:55:05;;;;;;;1.43;1.07;;;18.80;99.90;;;;;;5097260;28;20044;-80
2023/09/01 10:57:45;;;;;;;1.85;0.65;;;18.80;99.90;;;;;;5097403;28;20040;-80
2023/09/01 11:00:30;;;;;;;0.57;0.50;;;18.70;99.90;;;;;;5097143;28;20426;-80
2023/09/01 11:03:24;;;;;;;0.40;0.40;;;18.70;99.90;;;;;;5097339;28;20043;-80
2023/09/01 11:05:55;;;;;;;0.30;0.30;;;18.60;99.90;;;;;;5097363;28;20126;-80
2023/09/01 11:08:21;;;;;;;0.50;0.50;;;18.50;99.90;;;;;;5096990;28;20541;-80
2023/09/01 11:10:46;;;;;;;1.07;0.33;;;18.40;99.90;;;;;;5096649;28;20040;-79
2023/09/01 11:13:15;;;;;;;2.27;1.03;;;18.40;99.90;;;;;;5096872;28;20040;-80
2023/09/01 11:15:48;;;;;;;0.55;0.45;;;18.40;99.90;;;;;;5096831;28;20126;-79
2023/09/01 11:18:21;;;;;;;0.75;0.55;;;18.30;99.90;;;;;;5096906;28;20077;-79
2023/09/01 11:20:48;;;;;;;1.67;0.43;;;18.40;99.90;;;;;;5096812;28;20040;-79
2023/09/01 11:23:24;;;;;;;0.70;0.50;;;18.40;99.90;;;;;;5095726;28;20043;-80
2023/09/01 11:26:00;;;;;;;0.40;0.40;;;18.40;99.90;;;;;;5095810;28;20079;-80
2023/09/01 11:28:28;;;;;;;0.80;0.52;;;18.50;99.90;;;;;;5096616;28;20036;-80
2023/09/01 11:30:55;;;;;;;0.47;0.47;;;18.50;99.90;;;;;;5096714;28;20361;-80
2023/09/01 11:33:24;;;;;;;0.30;0.30;;;18.50;99.90;;;;;;5096981;28;20036;-80
2023/09/01 11:36:07;;;;;;;0.90;0.43;;;18.50;99.90;;;;;;5096561;28;20447;-80
2023/09/01 11:38:34;;;;;;;0.60;0.55;;;18.50;99.90;;;;;;5096568;28;20036;-80
2023/09/01 11:41:01;;;;;;;;;;;18.50;99.90;;;;;;5096936;28;20044;-79
2023/09/01 11:43:27;;;;;;;1.00;0.63;;;18.50;99.90;;;;;;5096901;28;19916;-79
2023/09/01 11:45:52;;;;;;;0.60;0.50;;;18.50;99.90;;;;;;5096480;28;20486;-79
2023/09/01 11:48:26;;;;;;;0.40;0.40;;;18.50;99.90;;;;;;5096418;28;20063;-80
2023/09/01 11:50:55;;;;;;;0.50;0.50;;;18.60;99.90;;;;;;5096083;28;20035;-79
2023/09/01 11:53:26;;;;;;;0.30;0.30;;;18.60;99.90;;;;;;5094851;28;20036;-80
2023/09/01 11:55:57;;;;;;;0.45;0.43;;;18.60;99.90;;;;;;5096309;28;20044;-80
2023/09/01 11:58:23;;;;;;;0.55;0.52;;;18.60;99.90;;;;;;5096501;28;20094;-79
2023/09/01 12:00:49;;;;;;;2.33;0.50;;;18.50;99.90;;;;;;5096060;28;20040;-80
2023/09/01 12:03:23;;;;;;;0.30;0.30;;;18.50;99.90;;;;;;5096040;28;20051;-79
2023/09/01 12:05:48;;;;;;;0.30;0.30;;;18.50;99.90;;;;;;5096067;28;20421;-79
2023/09/01 12:08:14;;;;;;;0.90;0.70;;;18.50;99.90;;;;;;5096093;28;20093;-79
2023/09/01 12:10:40;;;;;;;0.30;0.30;;;18.50;99.90;;;;;;5096289;28;20040;-80
2023/09/01 12:13:07;;;;;;;1.10;0.60;;;18.50;99.90;;;;;;5095743;28;20047;-79
2023/09/01 12:15:33;;;;;;;0.40;0.40;;;18.50;99.90;;;;;;5095687;28;20040;-80
2023/09/01 12:18:19;;;;;;;;;;;18.50;99.90;;;;;;5078263;28;20044;-80
2023/09/01 12:20:44;;;;;;;4.82;0.73;;;18.70;99.90;;;;;;5096169;28;19915;-79
2023/09/01 12:23:10;;;;;;;0.70;0.50;;;18.80;99.90;;;;;;5095654;28;20110;-80
2023/09/01 12:25:36;;;;;;;0.40;0.40;;;18.90;99.90;;;;;;5095621;28;20044;-80
2023/09/01 12:28:02;;;;;;;0.63;0.63;;;19.10;99.90;;;;;;5095660;28;20040;-79
2023/09/01 12:30:28;;;;;;;0.32;0.32;;;19.20;99.90;;;;;;5095136;28;20464;-79
2023/09/01 12:32:53;;;;;;;0.60;0.60;;;19.30;99.90;;;;;;5095453;28;20036;-79
2023/09/01 12:35:19;;;;;;;0.30;0.30;;;19.40;99.90;;;;;;5096149;28;20052;-80
2023/09/01 12:37:44;;;;;;;0.27;0.27;;;19.50;99.90;;;;;;5095479;28;20127;-79
2023/09/01 12:40:10;;;;;;;0.30;0.30;;;19.50;99.90;;;;;;5095352;28;20463;-80
2023/09/01 12:42:36;;;;;;;0.47;0.30;;;19.60;99.90;;;;;;5095252;28;20036;-80
2023/09/01 12:45:03;;;;;;;0.50;0.50;;;19.70;99.90;;;;;;5094955;28;20047;-80
2023/09/01 12:47:28;;;;;;;0.30;0.30;;;19.80;99.90;;;;;;5095404;28;20399;-80
2023/09/01 12:49:55;;;;;;;0.63;0.60;;;19.90;99.90;;;;;;5095188;28;20040;-80
2023/09/01 12:52:21;;;;;;;0.60;0.60;;;20.00;99.90;;;;;;5093966;28;20036;-80